Faker, Texas
Current Conditions -  °F | °C
As of 9:15 PM on Monday 20 Oct 2014 (Local Time) from KOSA Reporting Station
Clear Clear  
Wind Chill: 63°   Ceiling: Unl
Heat Index: 63°   Visibility: 10mi
Dew Point: 61°   Wind: 0mph
Humidity: 94%   Direction: NA
Pressure: 30.07"   Gusts: NA
Location:  32.9352°N, 94.9553°W
Report Text: KOSA 210215Z AUTO 00000KT 10SM CLR 17/16 A3007 RMK AO1 T01710161
Loading
Personal Weather Stations






























Interactive Weather Map
Tropical Storm Tracking
New forecast layout! Learn more

10-Day Weather Forecast

Advertisements
Track Severe Weather on mobile